sensor_id;sensor_type;location;lat;lon;timestamp;temperature;humidity
54485;DHT22;45006;56.958;24.166;2023-08-06T00:02:26;25.50;85.00
54485;DHT22;45006;56.958;24.166;2023-08-06T00:04:53;25.50;85.10
54485;DHT22;45006;56.958;24.166;2023-08-06T00:07:20;25.50;85.40
54485;DHT22;45006;56.958;24.166;2023-08-06T00:09:47;25.50;85.60
54485;DHT22;45006;56.958;24.166;2023-08-06T00:12:14;25.50;85.40
54485;DHT22;45006;56.958;24.166;2023-08-06T00:14:41;25.50;85.40
54485;DHT22;45006;56.958;24.166;2023-08-06T00:17:09;25.50;85.20
54485;DHT22;45006;56.958;24.166;2023-08-06T00:19:36;25.50;85.40
54485;DHT22;45006;56.958;24.166;2023-08-06T00:22:05;25.50;85.20
54485;DHT22;45006;56.958;24.166;2023-08-06T00:24:32;25.50;85.50
54485;DHT22;45006;56.958;24.166;2023-08-06T00:27:00;25.50;85.40
54485;DHT22;45006;56.958;24.166;2023-08-06T00:29:27;25.50;85.30
54485;DHT22;45006;56.958;24.166;2023-08-06T00:31:54;25.50;85.30
54485;DHT22;45006;56.958;24.166;2023-08-06T00:34:21;25.50;85.20
54485;DHT22;45006;56.958;24.166;2023-08-06T00:36:48;25.50;85.00
54485;DHT22;45006;56.958;24.166;2023-08-06T00:39:15;25.50;84.60
54485;DHT22;45006;56.958;24.166;2023-08-06T00:41:42;25.50;84.80
54485;DHT22;45006;56.958;24.166;2023-08-06T00:44:09;25.50;84.90
54485;DHT22;45006;56.958;24.166;2023-08-06T00:46:36;25.50;84.90
54485;DHT22;45006;56.958;24.166;2023-08-06T00:49:04;25.50;84.90
54485;DHT22;45006;56.958;24.166;2023-08-06T00:51:32;25.50;84.60
54485;DHT22;45006;56.958;24.166;2023-08-06T00:53:59;25.50;84.80
54485;DHT22;45006;56.958;24.166;2023-08-06T00:56:27;25.50;84.50
54485;DHT22;45006;56.958;24.166;2023-08-06T00:58:54;25.60;84.70
54485;DHT22;45006;56.958;24.166;2023-08-06T01:01:21;25.50;84.40
54485;DHT22;45006;56.958;24.166;2023-08-06T01:03:48;25.60;84.40
54485;DHT22;45006;56.958;24.166;2023-08-06T01:09:57;25.50;84.60
54485;DHT22;45006;56.958;24.166;2023-08-06T01:14:31;25.50;84.60
54485;DHT22;45006;56.958;24.166;2023-08-06T01:17:01;25.50;84.70
54485;DHT22;45006;56.958;24.166;2023-08-06T01:19:29;25.50;84.20
54485;DHT22;45006;56.958;24.166;2023-08-06T01:21:56;25.50;84.80
54485;DHT22;45006;56.958;24.166;2023-08-06T01:24:23;25.50;84.80
54485;DHT22;45006;56.958;24.166;2023-08-06T01:27:08;25.50;84.80
54485;DHT22;45006;56.958;24.166;2023-08-06T01:29:43;25.50;84.90
54485;DHT22;45006;56.958;24.166;2023-08-06T01:32:12;25.50;84.90
54485;DHT22;45006;56.958;24.166;2023-08-06T01:34:41;25.50;84.70
54485;DHT22;45006;56.958;24.166;2023-08-06T01:37:11;25.50;84.60
54485;DHT22;45006;56.958;24.166;2023-08-06T01:39:42;25.50;84.90
54485;DHT22;45006;56.958;24.166;2023-08-06T01:42:09;25.50;84.90
54485;DHT22;45006;56.958;24.166;2023-08-06T01:44:36;25.40;84.90
54485;DHT22;45006;56.958;24.166;2023-08-06T01:47:06;25.50;85.20
54485;DHT22;45006;56.958;24.166;2023-08-06T01:49:33;25.50;85.20
54485;DHT22;45006;56.958;24.166;2023-08-06T01:52:02;25.50;85.20
54485;DHT22;45006;56.958;24.166;2023-08-06T01:54:29;25.50;84.60
54485;DHT22;45006;56.958;24.166;2023-08-06T01:56:58;25.60;84.70
54485;DHT22;45006;56.958;24.166;2023-08-06T01:59:25;25.60;84.60
54485;DHT22;45006;56.958;24.166;2023-08-06T02:01:52;25.60;84.40
54485;DHT22;45006;56.958;24.166;2023-08-06T02:04:20;25.60;84.40
54485;DHT22;45006;56.958;24.166;2023-08-06T02:06:47;25.60;84.40
54485;DHT22;45006;56.958;24.166;2023-08-06T02:09:14;25.60;84.40
54485;DHT22;45006;56.958;24.166;2023-08-06T02:11:41;25.60;84.30
54485;DHT22;45006;56.958;24.166;2023-08-06T02:14:08;25.60;84.30
54485;DHT22;45006;56.958;24.166;2023-08-06T02:16:35;25.60;84.00
54485;DHT22;45006;56.958;24.166;2023-08-06T02:19:02;25.60;84.30
54485;DHT22;45006;56.958;24.166;2023-08-06T02:21:29;25.50;84.00
54485;DHT22;45006;56.958;24.166;2023-08-06T02:23:56;25.60;84.50
54485;DHT22;45006;56.958;24.166;2023-08-06T02:26:23;25.60;84.70
54485;DHT22;45006;56.958;24.166;2023-08-06T02:28:50;25.60;84.70
54485;DHT22;45006;56.958;24.166;2023-08-06T02:31:17;25.50;84.60
54485;DHT22;45006;56.958;24.166;2023-08-06T02:33:44;25.60;84.50
54485;DHT22;45006;56.958;24.166;2023-08-06T02:36:11;25.60;84.70
54485;DHT22;45006;56.958;24.166;2023-08-06T02:38:38;25.60;84.70
54485;DHT22;45006;56.958;24.166;2023-08-06T02:41:05;25.50;84.40
54485;DHT22;45006;56.958;24.166;2023-08-06T02:43:32;25.60;84.70
54485;DHT22;45006;56.958;24.166;2023-08-06T02:46:00;25.60;84.70
54485;DHT22;45006;56.958;24.166;2023-08-06T02:48:27;25.50;84.60
54485;DHT22;45006;56.958;24.166;2023-08-06T02:50:58;25.50;84.70
54485;DHT22;45006;56.958;24.166;2023-08-06T02:53:26;25.50;84.60
54485;DHT22;45006;56.958;24.166;2023-08-06T02:55:53;25.50;84.80
54485;DHT22;45006;56.958;24.166;2023-08-06T02:58:21;25.50;84.80
54485;DHT22;45006;56.958;24.166;2023-08-06T03:01:04;25.50;84.70
54485;DHT22;45006;56.958;24.166;2023-08-06T03:03:34;25.60;84.70
54485;DHT22;45006;56.958;24.166;2023-08-06T03:06:01;25.50;84.60
54485;DHT22;45006;56.958;24.166;2023-08-06T03:08:29;25.60;84.70
54485;DHT22;45006;56.958;24.166;2023-08-06T03:10:56;25.60;84.60
54485;DHT22;45006;56.958;24.166;2023-08-06T03:13:23;25.60;84.60
54485;DHT22;45006;56.958;24.166;2023-08-06T03:15:58;25.60;84.50
54485;DHT22;45006;56.958;24.166;2023-08-06T03:18:25;25.60;84.70
54485;DHT22;45006;56.958;24.166;2023-08-06T03:20:53;25.60;84.70
54485;DHT22;45006;56.958;24.166;2023-08-06T03:23:20;25.50;84.50
54485;DHT22;45006;56.958;24.166;2023-08-06T03:25:47;25.50;84.60
54485;DHT22;45006;56.958;24.166;2023-08-06T03:28:14;25.50;84.90
54485;DHT22;45006;56.958;24.166;2023-08-06T03:30:41;25.50;84.60
54485;DHT22;45006;56.958;24.166;2023-08-06T03:33:08;25.50;84.60
54485;DHT22;45006;56.958;24.166;2023-08-06T03:35:35;25.50;84.60
54485;DHT22;45006;56.958;24.166;2023-08-06T03:38:02;25.50;84.60
54485;DHT22;45006;56.958;24.166;2023-08-06T03:40:29;25.50;84.30
54485;DHT22;45006;56.958;24.166;2023-08-06T03:42:56;25.60;84.60
54485;DHT22;45006;56.958;24.166;2023-08-06T03:45:23;25.50;84.50
54485;DHT22;45006;56.958;24.166;2023-08-06T03:47:50;25.50;84.60
54485;DHT22;45006;56.958;24.166;2023-08-06T03:50:17;25.50;84.80
54485;DHT22;45006;56.958;24.166;2023-08-06T03:52:44;25.50;84.70
54485;DHT22;45006;56.958;24.166;2023-08-06T03:55:11;25.50;84.70
54485;DHT22;45006;56.958;24.166;2023-08-06T03:57:38;25.50;84.50
54485;DHT22;45006;56.958;24.166;2023-08-06T04:00:05;25.50;84.60
54485;DHT22;45006;56.958;24.166;2023-08-06T04:02:33;25.50;84.60
54485;DHT22;45006;56.958;24.166;2023-08-06T04:05:01;25.50;84.60
54485;DHT22;45006;56.958;24.166;2023-08-06T04:07:28;25.60;84.50
54485;DHT22;45006;56.958;24.166;2023-08-06T04:10:00;25.50;84.20
54485;DHT22;45006;56.958;24.166;2023-08-06T04:12:28;25.50;84.20
54485;DHT22;45006;56.958;24.166;2023-08-06T04:14:57;25.60;84.30
54485;DHT22;45006;56.958;24.166;2023-08-06T04:17:26;25.60;84.50
54485;DHT22;45006;56.958;24.166;2023-08-06T04:19:54;25.60;84.50
54485;DHT22;45006;56.958;24.166;2023-08-06T04:22:21;25.60;84.50
54485;DHT22;45006;56.958;24.166;2023-08-06T04:24:48;25.50;84.50
54485;DHT22;45006;56.958;24.166;2023-08-06T04:27:16;25.60;84.50
54485;DHT22;45006;56.958;24.166;2023-08-06T04:29:43;25.50;84.60
54485;DHT22;45006;56.958;24.166;2023-08-06T04:32:10;25.50;84.70
54485;DHT22;45006;56.958;24.166;2023-08-06T04:34:39;25.50;84.40
54485;DHT22;45006;56.958;24.166;2023-08-06T04:37:07;25.50;84.60
54485;DHT22;45006;56.958;24.166;2023-08-06T04:39:35;25.50;84.80
54485;DHT22;45006;56.958;24.166;2023-08-06T04:42:02;25.50;84.60
54485;DHT22;45006;56.958;24.166;2023-08-06T04:44:30;25.50;84.60
54485;DHT22;45006;56.958;24.166;2023-08-06T04:46:58;25.50;84.70
54485;DHT22;45006;56.958;24.166;2023-08-06T04:49:25;25.50;84.60
54485;DHT22;45006;56.958;24.166;2023-08-06T04:51:52;25.50;84.70
54485;DHT22;45006;56.958;24.166;2023-08-06T04:54:19;25.50;84.60
54485;DHT22;45006;56.958;24.166;2023-08-06T04:56:46;25.50;84.30
54485;DHT22;45006;56.958;24.166;2023-08-06T04:59:13;25.60;84.30
54485;DHT22;45006;56.958;24.166;2023-08-06T05:01:40;25.60;84.30
54485;DHT22;45006;56.958;24.166;2023-08-06T05:04:07;25.60;84.40
54485;DHT22;45006;56.958;24.166;2023-08-06T05:06:34;25.60;84.40
54485;DHT22;45006;56.958;24.166;2023-08-06T05:09:01;25.50;84.30
54485;DHT22;45006;56.958;24.166;2023-08-06T05:11:30;25.60;84.40
54485;DHT22;45006;56.958;24.166;2023-08-06T05:13:57;25.50;84.50
54485;DHT22;45006;56.958;24.166;2023-08-06T05:16:24;25.60;84.40
54485;DHT22;45006;56.958;24.166;2023-08-06T05:18:51;25.60;84.70
54485;DHT22;45006;56.958;24.166;2023-08-06T05:21:18;25.60;84.40
54485;DHT22;45006;56.958;24.166;2023-08-06T05:23:45;25.70;84.40
54485;DHT22;45006;56.958;24.166;2023-08-06T05:26:13;25.70;84.60
54485;DHT22;45006;56.958;24.166;2023-08-06T05:28:43;25.70;84.40
54485;DHT22;45006;56.958;24.166;2023-08-06T05:31:10;25.70;84.30
54485;DHT22;45006;56.958;24.166;2023-08-06T05:33:39;25.70;84.60
54485;DHT22;45006;56.958;24.166;2023-08-06T05:36:05;25.70;84.60
54485;DHT22;45006;56.958;24.166;2023-08-06T05:38:33;25.60;84.80
54485;DHT22;45006;56.958;24.166;2023-08-06T05:41:00;25.60;85.00
54485;DHT22;45006;56.958;24.166;2023-08-06T05:43:27;25.60;85.20
54485;DHT22;45006;56.958;24.166;2023-08-06T05:45:55;25.60;85.20
54485;DHT22;45006;56.958;24.166;2023-08-06T05:48:23;25.60;85.10
54485;DHT22;45006;56.958;24.166;2023-08-06T05:50:51;25.60;85.30
54485;DHT22;45006;56.958;24.166;2023-08-06T05:53:19;25.70;85.40
54485;DHT22;45006;56.958;24.166;2023-08-06T05:55:47;25.70;85.30
54485;DHT22;45006;56.958;24.166;2023-08-06T05:58:14;25.70;85.40
54485;DHT22;45006;56.958;24.166;2023-08-06T06:00:41;25.70;85.10
54485;DHT22;45006;56.958;24.166;2023-08-06T06:03:08;25.70;85.30
54485;DHT22;45006;56.958;24.166;2023-08-06T06:05:38;25.70;85.50
54485;DHT22;45006;56.958;24.166;2023-08-06T06:08:08;25.70;85.40
54485;DHT22;45006;56.958;24.166;2023-08-06T06:10:35;25.70;85.40
54485;DHT22;45006;56.958;24.166;2023-08-06T06:13:03;25.70;85.40
54485;DHT22;45006;56.958;24.166;2023-08-06T06:15:32;25.60;85.60
54485;DHT22;45006;56.958;24.166;2023-08-06T06:17:59;25.70;85.70
54485;DHT22;45006;56.958;24.166;2023-08-06T06:20:26;25.60;85.80
54485;DHT22;45006;56.958;24.166;2023-08-06T06:22:54;25.60;85.80
54485;DHT22;45006;56.958;24.166;2023-08-06T06:25:22;25.60;85.90
54485;DHT22;45006;56.958;24.166;2023-08-06T06:27:50;25.60;86.00
54485;DHT22;45006;56.958;24.166;2023-08-06T06:30:17;25.60;86.00
54485;DHT22;45006;56.958;24.166;2023-08-06T06:32:44;25.60;85.90
54485;DHT22;45006;56.958;24.166;2023-08-06T06:35:12;25.70;86.10
54485;DHT22;45006;56.958;24.166;2023-08-06T06:37:41;25.70;86.20
54485;DHT22;45006;56.958;24.166;2023-08-06T06:40:11;25.60;86.10
54485;DHT22;45006;56.958;24.166;2023-08-06T06:42:38;25.60;86.20
54485;DHT22;45006;56.958;24.166;2023-08-06T06:45:05;25.60;86.30
54485;DHT22;45006;56.958;24.166;2023-08-06T06:47:32;25.70;86.30
54485;DHT22;45006;56.958;24.166;2023-08-06T06:49:59;25.70;86.40
54485;DHT22;45006;56.958;24.166;2023-08-06T06:52:26;25.70;86.30
54485;DHT22;45006;56.958;24.166;2023-08-06T06:54:53;25.60;86.30
54485;DHT22;45006;56.958;24.166;2023-08-06T06:57:20;25.60;86.40
54485;DHT22;45006;56.958;24.166;2023-08-06T06:59:47;25.70;86.40
54485;DHT22;45006;56.958;24.166;2023-08-06T07:02:14;25.70;87.10
54485;DHT22;45006;56.958;24.166;2023-08-06T07:04:41;25.70;83.80
54485;DHT22;45006;56.958;24.166;2023-08-06T07:07:08;25.70;83.00
54485;DHT22;45006;56.958;24.166;2023-08-06T07:09:37;25.60;82.30
54485;DHT22;45006;56.958;24.166;2023-08-06T07:12:05;25.60;83.10
54485;DHT22;45006;56.958;24.166;2023-08-06T07:14:34;25.70;83.20
54485;DHT22;45006;56.958;24.166;2023-08-06T07:17:02;25.70;83.10
54485;DHT22;45006;56.958;24.166;2023-08-06T07:19:30;25.70;82.80
54485;DHT22;45006;56.958;24.166;2023-08-06T07:21:58;25.70;83.00
54485;DHT22;45006;56.958;24.166;2023-08-06T07:24:26;25.70;83.00
54485;DHT22;45006;56.958;24.166;2023-08-06T07:26:54;25.70;83.00
54485;DHT22;45006;56.958;24.166;2023-08-06T07:29:22;25.70;83.00
54485;DHT22;45006;56.958;24.166;2023-08-06T07:31:49;25.70;83.00
54485;DHT22;45006;56.958;24.166;2023-08-06T07:34:17;25.70;82.80
54485;DHT22;45006;56.958;24.166;2023-08-06T07:36:47;25.70;83.00
54485;DHT22;45006;56.958;24.166;2023-08-06T07:39:14;25.70;82.90
54485;DHT22;45006;56.958;24.166;2023-08-06T07:41:45;25.70;82.80
54485;DHT22;45006;56.958;24.166;2023-08-06T07:44:12;25.70;82.60
54485;DHT22;45006;56.958;24.166;2023-08-06T07:46:39;25.70;82.50
54485;DHT22;45006;56.958;24.166;2023-08-06T07:49:07;25.70;82.50
54485;DHT22;45006;56.958;24.166;2023-08-06T07:51:34;25.80;82.60
54485;DHT22;45006;56.958;24.166;2023-08-06T07:54:01;25.80;82.60
54485;DHT22;45006;56.958;24.166;2023-08-06T07:56:28;25.80;83.00
54485;DHT22;45006;56.958;24.166;2023-08-06T07:58:55;25.80;83.00
54485;DHT22;45006;56.958;24.166;2023-08-06T08:01:22;25.80;82.90
54485;DHT22;45006;56.958;24.166;2023-08-06T08:03:50;25.80;83.70
54485;DHT22;45006;56.958;24.166;2023-08-06T08:06:17;25.70;84.10
54485;DHT22;45006;56.958;24.166;2023-08-06T08:08:44;25.60;84.50
54485;DHT22;45006;56.958;24.166;2023-08-06T08:11:11;25.60;84.80
54485;DHT22;45006;56.958;24.166;2023-08-06T08:13:38;25.60;85.30
54485;DHT22;45006;56.958;24.166;2023-08-06T08:16:05;25.60;85.20
54485;DHT22;45006;56.958;24.166;2023-08-06T08:18:33;25.60;85.30
54485;DHT22;45006;56.958;24.166;2023-08-06T08:21:00;25.60;85.00
54485;DHT22;45006;56.958;24.166;2023-08-06T08:23:27;25.60;84.70
54485;DHT22;45006;56.958;24.166;2023-08-06T08:25:55;25.60;84.50
54485;DHT22;45006;56.958;24.166;2023-08-06T08:28:22;25.70;84.60
54485;DHT22;45006;56.958;24.166;2023-08-06T08:30:49;25.70;84.60
54485;DHT22;45006;56.958;24.166;2023-08-06T08:33:17;25.70;84.40
54485;DHT22;45006;56.958;24.166;2023-08-06T08:35:45;25.70;84.40
54485;DHT22;45006;56.958;24.166;2023-08-06T08:38:12;25.70;84.30
54485;DHT22;45006;56.958;24.166;2023-08-06T08:40:47;25.70;84.10
54485;DHT22;45006;56.958;24.166;2023-08-06T08:43:16;25.70;84.30
54485;DHT22;45006;56.958;24.166;2023-08-06T08:45:43;25.70;84.40
54485;DHT22;45006;56.958;24.166;2023-08-06T08:48:12;25.70;84.30
54485;DHT22;45006;56.958;24.166;2023-08-06T08:50:45;25.70;84.20
54485;DHT22;45006;56.958;24.166;2023-08-06T08:53:14;25.70;84.40
54485;DHT22;45006;56.958;24.166;2023-08-06T08:55:43;25.70;84.30
54485;DHT22;45006;56.958;24.166;2023-08-06T08:58:21;25.70;84.10
54485;DHT22;45006;56.958;24.166;2023-08-06T09:00:49;25.70;84.30
54485;DHT22;45006;56.958;24.166;2023-08-06T09:03:17;25.70;84.30
54485;DHT22;45006;56.958;24.166;2023-08-06T09:05:45;25.80;84.30
54485;DHT22;45006;56.958;24.166;2023-08-06T09:08:18;25.80;84.60
54485;DHT22;45006;56.958;24.166;2023-08-06T09:10:48;25.90;84.70
54485;DHT22;45006;56.958;24.166;2023-08-06T09:13:18;25.90;84.80
54485;DHT22;45006;56.958;24.166;2023-08-06T09:15:46;25.90;85.20
54485;DHT22;45006;56.958;24.166;2023-08-06T09:18:14;25.90;85.40
54485;DHT22;45006;56.958;24.166;2023-08-06T09:20:41;25.80;85.20
54485;DHT22;45006;56.958;24.166;2023-08-06T09:23:09;25.80;85.30
54485;DHT22;45006;56.958;24.166;2023-08-06T09:25:40;25.80;85.20
54485;DHT22;45006;56.958;24.166;2023-08-06T09:28:07;25.80;85.20
54485;DHT22;45006;56.958;24.166;2023-08-06T09:30:36;25.80;85.20
54485;DHT22;45006;56.958;24.166;2023-08-06T09:33:08;25.80;85.20
54485;DHT22;45006;56.958;24.166;2023-08-06T09:35:36;25.80;85.30
54485;DHT22;45006;56.958;24.166;2023-08-06T09:38:08;25.80;85.30
54485;DHT22;45006;56.958;24.166;2023-08-06T09:40:37;25.80;85.40
54485;DHT22;45006;56.958;24.166;2023-08-06T09:43:06;25.80;85.50
54485;DHT22;45006;56.958;24.166;2023-08-06T09:45:37;25.80;85.50
54485;DHT22;45006;56.958;24.166;2023-08-06T09:48:06;25.80;85.40
54485;DHT22;45006;56.958;24.166;2023-08-06T09:50:35;25.80;85.50
54485;DHT22;45006;56.958;24.166;2023-08-06T09:53:07;25.80;85.50
54485;DHT22;45006;56.958;24.166;2023-08-06T09:55:38;25.80;85.60
54485;DHT22;45006;56.958;24.166;2023-08-06T09:58:06;25.80;85.70
54485;DHT22;45006;56.958;24.166;2023-08-06T10:00:33;25.80;85.60
54485;DHT22;45006;56.958;24.166;2023-08-06T10:03:06;25.80;85.60
54485;DHT22;45006;56.958;24.166;2023-08-06T10:05:35;25.80;85.60
54485;DHT22;45006;56.958;24.166;2023-08-06T10:08:03;25.80;85.80
54485;DHT22;45006;56.958;24.166;2023-08-06T10:10:33;25.80;85.70
54485;DHT22;45006;56.958;24.166;2023-08-06T10:13:03;25.90;85.70
54485;DHT22;45006;56.958;24.166;2023-08-06T10:15:32;25.90;86.00
54485;DHT22;45006;56.958;24.166;2023-08-06T10:18:01;25.80;86.10
54485;DHT22;45006;56.958;24.166;2023-08-06T10:20:36;25.90;86.80
54485;DHT22;45006;56.958;24.166;2023-08-06T10:23:06;25.90;86.20
54485;DHT22;45006;56.958;24.166;2023-08-06T10:25:41;25.90;86.20
54485;DHT22;45006;56.958;24.166;2023-08-06T10:28:11;25.80;86.10
54485;DHT22;45006;56.958;24.166;2023-08-06T10:30:48;25.90;86.30
54485;DHT22;45006;56.958;24.166;2023-08-06T10:33:15;25.90;86.10
54485;DHT22;45006;56.958;24.166;2023-08-06T10:35:44;25.90;86.30
54485;DHT22;45006;56.958;24.166;2023-08-06T10:38:21;25.80;86.10
54485;DHT22;45006;56.958;24.166;2023-08-06T10:43:35;25.90;86.40
54485;DHT22;45006;56.958;24.166;2023-08-06T10:46:10;25.90;86.20
54485;DHT22;45006;56.958;24.166;2023-08-06T10:48:41;25.90;86.30
54485;DHT22;45006;56.958;24.166;2023-08-06T10:51:11;25.90;86.10
54485;DHT22;45006;56.958;24.166;2023-08-06T10:53:41;25.90;86.40
54485;DHT22;45006;56.958;24.166;2023-08-06T10:56:17;25.90;86.10
54485;DHT22;45006;56.958;24.166;2023-08-06T10:58:46;25.90;86.40
54485;DHT22;45006;56.958;24.166;2023-08-06T11:01:23;25.90;86.20
54485;DHT22;45006;56.958;24.166;2023-08-06T11:03:50;25.90;86.00
54485;DHT22;45006;56.958;24.166;2023-08-06T11:06:21;25.90;86.40
54485;DHT22;45006;56.958;24.166;2023-08-06T11:08:53;25.90;86.10
54485;DHT22;45006;56.958;24.166;2023-08-06T11:11:21;25.90;86.00
54485;DHT22;45006;56.958;24.166;2023-08-06T11:13:51;25.90;85.80
54485;DHT22;45006;56.958;24.166;2023-08-06T11:16:20;25.90;86.10
54485;DHT22;45006;56.958;24.166;2023-08-06T11:18:50;25.90;86.20
54485;DHT22;45006;56.958;24.166;2023-08-06T11:21:20;25.90;85.80
54485;DHT22;45006;56.958;24.166;2023-08-06T11:23:51;25.90;85.80
54485;DHT22;45006;56.958;24.166;2023-08-06T11:26:19;25.90;85.70
54485;DHT22;45006;56.958;24.166;2023-08-06T11:28:49;25.90;85.50
54485;DHT22;45006;56.958;24.166;2023-08-06T11:31:22;26.00;85.60
54485;DHT22;45006;56.958;24.166;2023-08-06T11:33:51;26.00;85.50
54485;DHT22;45006;56.958;24.166;2023-08-06T11:36:32;26.00;85.50
54485;DHT22;45006;56.958;24.166;2023-08-06T11:39:01;26.00;85.40
54485;DHT22;45006;56.958;24.166;2023-08-06T11:41:29;25.90;85.30
54485;DHT22;45006;56.958;24.166;2023-08-06T11:43:58;26.00;85.30
54485;DHT22;45006;56.958;24.166;2023-08-06T11:46:26;26.00;85.30
54485;DHT22;45006;56.958;24.166;2023-08-06T11:48:54;26.00;85.20
54485;DHT22;45006;56.958;24.166;2023-08-06T11:51:25;26.00;85.10
54485;DHT22;45006;56.958;24.166;2023-08-06T11:53:56;26.00;85.00
54485;DHT22;45006;56.958;24.166;2023-08-06T11:56:25;26.00;84.90
54485;DHT22;45006;56.958;24.166;2023-08-06T11:58:54;26.00;84.80
54485;DHT22;45006;56.958;24.166;2023-08-06T12:01:25;26.00;84.80
54485;DHT22;45006;56.958;24.166;2023-08-06T12:03:52;26.00;84.70
54485;DHT22;45006;56.958;24.166;2023-08-06T12:06:19;26.00;84.70
54485;DHT22;45006;56.958;24.166;2023-08-06T12:08:47;26.00;84.60
54485;DHT22;45006;56.958;24.166;2023-08-06T12:11:14;26.00;84.60
54485;DHT22;45006;56.958;24.166;2023-08-06T12:13:41;26.00;84.50
54485;DHT22;45006;56.958;24.166;2023-08-06T12:16:08;26.00;84.50
54485;DHT22;45006;56.958;24.166;2023-08-06T12:18:35;26.00;84.50
54485;DHT22;45006;56.958;24.166;2023-08-06T12:21:02;26.00;84.40
54485;DHT22;45006;56.958;24.166;2023-08-06T12:23:29;26.00;84.20
54485;DHT22;45006;56.958;24.166;2023-08-06T12:25:58;26.00;84.20
54485;DHT22;45006;56.958;24.166;2023-08-06T12:28:25;26.00;84.20
54485;DHT22;45006;56.958;24.166;2023-08-06T12:30:52;26.10;84.10
54485;DHT22;45006;56.958;24.166;2023-08-06T12:33:22;26.10;83.90
54485;DHT22;45006;56.958;24.166;2023-08-06T12:35:49;26.10;83.90
54485;DHT22;45006;56.958;24.166;2023-08-06T12:38:16;26.10;83.70
54485;DHT22;45006;56.958;24.166;2023-08-06T12:40:44;26.10;83.60
54485;DHT22;45006;56.958;24.166;2023-08-06T12:43:11;26.10;83.60
54485;DHT22;45006;56.958;24.166;2023-08-06T12:45:38;26.10;83.60
54485;DHT22;45006;56.958;24.166;2023-08-06T12:48:05;26.10;83.70
54485;DHT22;45006;56.958;24.166;2023-08-06T12:50:33;26.10;83.60
54485;DHT22;45006;56.958;24.166;2023-08-06T12:53:01;26.10;83.60
54485;DHT22;45006;56.958;24.166;2023-08-06T12:55:28;26.10;83.50
54485;DHT22;45006;56.958;24.166;2023-08-06T12:57:58;26.10;83.40
54485;DHT22;45006;56.958;24.166;2023-08-06T13:00:26;26.10;83.20
54485;DHT22;45006;56.958;24.166;2023-08-06T13:02:55;26.10;83.30
54485;DHT22;45006;56.958;24.166;2023-08-06T13:05:22;26.10;83.20
54485;DHT22;45006;56.958;24.166;2023-08-06T13:07:49;26.10;83.20
54485;DHT22;45006;56.958;24.166;2023-08-06T13:10:18;26.10;83.10
54485;DHT22;45006;56.958;24.166;2023-08-06T13:12:45;26.10;83.10
54485;DHT22;45006;56.958;24.166;2023-08-06T13:15:12;26.10;82.90
54485;DHT22;45006;56.958;24.166;2023-08-06T13:17:41;26.10;82.90
54485;DHT22;45006;56.958;24.166;2023-08-06T13:20:08;26.10;82.90
54485;DHT22;45006;56.958;24.166;2023-08-06T13:22:36;26.10;82.80
54485;DHT22;45006;56.958;24.166;2023-08-06T13:25:04;26.10;82.80
54485;DHT22;45006;56.958;24.166;2023-08-06T13:27:31;26.10;82.70
54485;DHT22;45006;56.958;24.166;2023-08-06T13:29:58;26.10;82.70
54485;DHT22;45006;56.958;24.166;2023-08-06T13:32:25;26.10;82.60
54485;DHT22;45006;56.958;24.166;2023-08-06T13:34:54;26.10;82.50
54485;DHT22;45006;56.958;24.166;2023-08-06T13:37:23;26.10;82.50
54485;DHT22;45006;56.958;24.166;2023-08-06T13:39:52;26.10;82.40
54485;DHT22;45006;56.958;24.166;2023-08-06T13:42:22;26.10;82.30
54485;DHT22;45006;56.958;24.166;2023-08-06T13:44:49;26.10;82.20
54485;DHT22;45006;56.958;24.166;2023-08-06T13:47:16;26.10;82.20
54485;DHT22;45006;56.958;24.166;2023-08-06T13:49:43;26.10;82.20
54485;DHT22;45006;56.958;24.166;2023-08-06T13:52:10;26.10;82.20
54485;DHT22;45006;56.958;24.166;2023-08-06T13:54:48;26.10;82.40
54485;DHT22;45006;56.958;24.166;2023-08-06T13:57:15;26.10;82.30
54485;DHT22;45006;56.958;24.166;2023-08-06T13:59:44;26.10;82.10
54485;DHT22;45006;56.958;24.166;2023-08-06T14:02:12;26.10;82.00
54485;DHT22;45006;56.958;24.166;2023-08-06T14:04:39;26.10;82.10
54485;DHT22;45006;56.958;24.166;2023-08-06T14:07:07;26.10;81.90
54485;DHT22;45006;56.958;24.166;2023-08-06T14:09:35;26.10;81.80
54485;DHT22;45006;56.958;24.166;2023-08-06T14:12:02;26.10;81.70
54485;DHT22;45006;56.958;24.166;2023-08-06T14:14:30;26.10;81.70
54485;DHT22;45006;56.958;24.166;2023-08-06T14:16:57;26.10;81.50
54485;DHT22;45006;56.958;24.166;2023-08-06T14:19:25;26.10;81.40
54485;DHT22;45006;56.958;24.166;2023-08-06T14:21:52;26.10;81.40
54485;DHT22;45006;56.958;24.166;2023-08-06T14:24:19;26.10;81.30
54485;DHT22;45006;56.958;24.166;2023-08-06T14:26:46;26.10;81.10
54485;DHT22;45006;56.958;24.166;2023-08-06T14:29:14;26.10;81.20
54485;DHT22;45006;56.958;24.166;2023-08-06T14:31:41;26.20;81.10
54485;DHT22;45006;56.958;24.166;2023-08-06T14:34:10;26.20;81.10
54485;DHT22;45006;56.958;24.166;2023-08-06T14:36:37;26.10;80.90
54485;DHT22;45006;56.958;24.166;2023-08-06T14:39:06;26.10;80.90
54485;DHT22;45006;56.958;24.166;2023-08-06T14:41:33;26.10;80.70
54485;DHT22;45006;56.958;24.166;2023-08-06T14:44:00;26.10;80.90
54485;DHT22;45006;56.958;24.166;2023-08-06T14:46:27;26.10;80.70
54485;DHT22;45006;56.958;24.166;2023-08-06T14:48:54;26.10;80.70
54485;DHT22;45006;56.958;24.166;2023-08-06T14:51:21;26.20;80.80
54485;DHT22;45006;56.958;24.166;2023-08-06T14:53:48;26.10;80.60
54485;DHT22;45006;56.958;24.166;2023-08-06T14:56:15;26.10;80.50
54485;DHT22;45006;56.958;24.166;2023-08-06T14:58:42;26.10;81.20
54485;DHT22;45006;56.958;24.166;2023-08-06T15:01:09;26.20;80.60
54485;DHT22;45006;56.958;24.166;2023-08-06T15:03:36;26.20;80.90
54485;DHT22;45006;56.958;24.166;2023-08-06T15:06:06;26.10;80.40
54485;DHT22;45006;56.958;24.166;2023-08-06T15:08:33;26.10;80.40
54485;DHT22;45006;56.958;24.166;2023-08-06T15:11:00;26.10;80.50
54485;DHT22;45006;56.958;24.166;2023-08-06T15:13:29;26.10;80.30
54485;DHT22;45006;56.958;24.166;2023-08-06T15:15:57;26.10;80.10
54485;DHT22;45006;56.958;24.166;2023-08-06T15:18:24;26.10;80.00
54485;DHT22;45006;56.958;24.166;2023-08-06T15:20:51;26.10;79.90
54485;DHT22;45006;56.958;24.166;2023-08-06T15:23:18;26.10;79.90
54485;DHT22;45006;56.958;24.166;2023-08-06T15:25:45;26.10;79.70
54485;DHT22;45006;56.958;24.166;2023-08-06T15:28:14;26.20;79.70
54485;DHT22;45006;56.958;24.166;2023-08-06T15:30:49;26.10;79.70